Terminal Aerodrome Forecast
Issued by NWS

Home | Current Version | Previous Version | Text Only | Print | Product List | Glossary On
Versions: 1 2 3 4 5 6 7 8 9 10 11 12 13 14 15 16 17 18 19 20 21 22 23 24 25 26 27 28 29 30 31 32
088
FTUS43 KDVN 162102 AAD
TAFCID
TAF AMD
KCID 162102Z 1621/1718 16012KT P6SM VCTS SCT018 BKN025CB BKN060
     FM170400 19008KT 6SM BR VCSH BKN030
     FM170800 23009KT 6SM BR BKN020
     FM171400 26014G18KT 6SM BR OVC012=

USA.gov is the U.S. government's official web portal to all federal, state and local government web resources and services.